Stuart, FL

7:04 AM EST on March 04, 2015 (GMT -0500)
Palm Beach International | Change Station
CLOSE
Current Station
Airport
Location: West Palm Beach,
Elevation: 20 ft
Nearby Weather Stations

Elev 20 ft 26.68 °N, 80.10 °W | Updated 1 hour ago

Mostly Cloudy
Mostly Cloudy
74 °F
Feels Like 74 °F
N
12
Wind Variable Wind from SE

Today
High -- | Low -- °F
--% Chance of Precip.
Yesterday
High -- | Low -- °F
Precip. -- in
6:42 AM 6:23 PM
Waxing Gibbous, 99% visible
Pressure 30.11 in
Visibility 10.0 miles
Clouds Scattered Clouds 2300 ft
Dew Point 67 °F
Humidity 79%
Rainfall 0.00 in
Snow Depth Not available.
UV 0 out of 12
Pollen 10.60 out of 12
Air Quality Not available.
Flu Activity Not available.
METAR KPBI 041053Z 13010KT 10SM SCT023 23/19 A3011 RMK AO2 SLP196 T02330194 $

More Conditions Fewer Conditions

Pressure 30.11 in
Visibility 10.0 miles
Clouds Scattered Clouds 2300 ft
Dew Point 67 °F
Humidity 79%
Rainfall 0.00 in
Snow Depth Not available.
UV 0 out of 12
Pollen 10.60 out of 12
Air Quality Not available.
Flu Activity Not available.
METAR KPBI 041053Z 13010KT 10SM SCT023 23/19 A3011 RMK AO2 SLP196 T02330194 $

More Conditions Fewer Conditions

Nowcast | as of 5:56 am EST on March 4, 2015

Through 9 am...patchy dense fog will reduce visibilities below one half mile at times mainly over interior sections from Lake County... across Orlando Metro down to Lake Okeechobee. Patchy fog will also be possible near the coast but the reduction in visibility should not be as significant. The fog will dissipate by 9 am followed by much above normal temperatures this afternoon. Near record highs in the upper 80s are forecast for Orlando Metro this afternoon as well as other interior locations...with mid 80s elsewhere. This is 10 to 14 degrees above normal for this time of year. No rain is expected. The primary hazard today will be a low to moderate risk of strong rip currents at the beaches caused by a small but long period east swell. Always swim within sight of a lifeguard. Additional details...including graphics are available online at: http://www.Srh.NOAA.Gov/mlb/blog.Php

×

10-Day Weather Forecast

Almanac

Astronomy

Mar. 04, 2015 Rise Set
Actual Time
Civil Twilight
Nautical Twilight
Astronomical Twilight
Moon
Length of Visible Light
Length of Day
Tomorrow will be .
, % of the Moon is Illuminated

Today's Extremes

State Highs State Lows

Community

WunderPhotos

Upload Photos

1,802,436 photos uploaded!

WunderBlogs® & News

Nearby

Air Quality

  Air Quality AQ Index Pollutant
Not available.

Snow Depth

Station Depth Elevation

Earthquake Activity

City Distance Mag. Time & Date
Minimum magnitude displayed is 2.5.

Coastal Water Temperatures

Place Temperature

Nearby Weather Stations